^^
Datos históricos de la estación: Murcia-Puente Tocinos
Diario Informe para Junio 17, 2021 Unidades:  Ambas    Ingés   Métrico
Diario Semanal Mensual Anual
  Máxima: Mínima: Promedio:
Temperatura: 86.7 °F /  30.4 °C 66 °F /  18.9 °C 77.5 °F /  25.3 °C
Punto de rocio: 68.5 °F /  20.3 °C 58.3 °F /  14.6 °C 62.8 °F /  17.1 °C
Humedad: 91% 39.7% 63%
Velocidad viento: 19.2mph /  30.9km/h - 4.1mph /  6.6km/h
Racha viento: 36mph /  57.9km/h - -
Viento- - Sur
Presión: 29.8 in /  1010.5 hPa 29.7 in /  1006.8 hPa -
Precipitación: 0.32 in /  8.2 mm    
 
 
Tabla de datos para Junio 17, 2021
Hora Temperatura Punto de rocio Presión Viento Velocidad viento Racha viento Humedad Intensidad lluvia(por hora) Nubes
00:04 75.6 °F /  24.2 °C 67.5 °F /  19.7 °C 29.8in /  1009.4hPa Oeste 1.8mph /  2.9km/h 6.2mph /  10km/h 76% 0in /  0.0mm
00:09 75.6 °F /  24.2 °C 67.5 °F /  19.7 °C 29.8in /  1009.4hPa Oeste 2.5mph /  4.1km/h 5.8mph /  9.3km/h 76% 0in /  0.0mm
00:14 75.4 °F /  24.1 °C 67.3 °F /  19.6 °C 29.8in /  1009.3hPa ONO 3.1mph /  5km/h 6mph /  9.7km/h 76% 0in /  0.0mm
00:19 75.4 °F /  24.1 °C 67.5 °F /  19.7 °C 29.8in /  1009.3hPa ONO 3.4mph /  5.4km/h 5.9mph /  9.5km/h 76.4% 0in /  0.0mm
00:24 75.2 °F /  24 °C 67.5 °F /  19.7 °C 29.8in /  1009.3hPa ONO 3.6mph /  5.8km/h 5.9mph /  9.5km/h 77% 0in /  0.0mm
00:29 75 °F /  23.9 °C 67.3 °F /  19.6 °C 29.8in /  1009.0hPa Oeste 3.6mph /  5.8km/h 6mph /  9.7km/h 77% 0in /  0.0mm
00:34 75 °F /  23.9 °C 67.3 °F /  19.6 °C 29.8in /  1009.0hPa Oeste 3.6mph /  5.8km/h 4.7mph /  7.6km/h 77% 0in /  0.0mm
00:39 74.8 °F /  23.8 °C 67.5 °F /  19.7 °C 29.8in /  1009.3hPa ONO 3.3mph /  5.3km/h 5mph /  8km/h 77.9% 0in /  0.0mm
00:44 74.8 °F /  23.8 °C 67.5 °F /  19.7 °C 29.8in /  1009.3hPa Oeste 3.1mph /  5km/h 5.2mph /  8.4km/h 78% 0in /  0.0mm
00:49 74.8 °F /  23.8 °C 67.5 °F /  19.7 °C 29.8in /  1009.3hPa OSO 3.4mph /  5.5km/h 5.8mph /  9.3km/h 78% 0in /  0.0mm
00:54 74.8 °F /  23.8 °C 67.5 °F /  19.7 °C 29.8in /  1009.8hPa Oeste 3.6mph /  5.8km/h 6mph /  9.7km/h 78% 0in /  0.0mm
00:59 74.8 °F /  23.8 °C 67.5 °F /  19.7 °C 29.8in /  1009.8hPa Oeste 3.6mph /  5.8km/h 6mph /  9.7km/h 78% 0in /  0.0mm
01:04 74.8 °F /  23.8 °C 67.5 °F /  19.7 °C 29.8in /  1009.8hPa Oeste 3.6mph /  5.8km/h 6mph /  9.7km/h 78% 0in /  0.0mm
01:09 74.8 °F /  23.8 °C 67.5 °F /  19.7 °C 29.8in /  1009.8hPa ONO 3.2mph /  5.1km/h 6mph /  9.7km/h 78% 0in /  0.0mm
01:14 74.8 °F /  23.8 °C 67.6 °F /  19.8 °C 29.8in /  1009.7hPa ONO 2.9mph /  4.7km/h 4.6mph /  7.4km/h 78% 0in /  0.0mm
01:19 74.8 °F /  23.8 °C 67.6 °F /  19.8 °C 29.8in /  1009.7hPa ONO 2.2mph /  3.5km/h 5mph /  8km/h 78% 0in /  0.0mm
01:24 75 °F /  23.9 °C 67.6 °F /  19.8 °C 29.8in /  1009.8hPa NNE 1.8mph /  2.9km/h 6.9mph /  11.1km/h 78% 0in /  0.0mm
01:29 74.8 °F /  23.8 °C 67.5 °F /  19.7 °C 29.8in /  1009.8hPa ESE 2.5mph /  4.1km/h 8.5mph /  13.7km/h 78% 0in /  0.0mm
01:34 74.7 °F /  23.7 °C 67.3 °F /  19.6 °C 29.8in /  1009.8hPa SE 3.1mph /  5km/h 9mph /  14.5km/h 78% 0in /  0.0mm
01:39 74.5 °F /  23.6 °C 67.1 °F /  19.5 °C 29.8in /  1009.8hPa ESE 4mph /  6.5km/h 6.2mph /  10km/h 78% 0in /  0.0mm
01:44 74.3 °F /  23.5 °C 66.9 °F /  19.4 °C 29.8in /  1009.8hPa SE 4.7mph /  7.6km/h 5.9mph /  9.5km/h 78% 0in /  0.0mm
01:49 74.3 °F /  23.5 °C 67.1 °F /  19.5 °C 29.8in /  1009.8hPa SSE 4mph /  6.4km/h 6mph /  9.7km/h 78% 0in /  0.0mm
01:54 74.5 °F /  23.6 °C 67.3 °F /  19.6 °C 29.8in /  1009.8hPa SSE 3.6mph /  5.8km/h 4.6mph /  7.4km/h 78% 0in /  0.0mm
01:59 74.5 °F /  23.6 °C 67.3 °F /  19.6 °C 29.8in /  1009.4hPa SSE 2.9mph /  4.6km/h 5mph /  8km/h 78% 0in /  0.0mm
02:04 74.5 °F /  23.6 °C 67.3 °F /  19.6 °C 29.8in /  1009.4hPa Sur 2.4mph /  3.9km/h 4.6mph /  7.4km/h 78% 0in /  0.0mm
02:09 74.5 °F /  23.6 °C 67.3 °F /  19.6 °C 29.8in /  1009.4hPa Sur 2.4mph /  3.9km/h 5mph /  8km/h 78% 0in /  0.0mm
02:14 74.7 °F /  23.7 °C 67.3 °F /  19.6 °C 29.8in /  1009.4hPa SSO 2.4mph /  3.9km/h 3.5mph /  5.6km/h 78% 0in /  0.0mm
02:19 74.7 °F /  23.7 °C 67.3 °F /  19.6 °C 29.8in /  1009.4hPa Sur 2.1mph /  3.3km/h 3.6mph /  5.8km/h 78% 0in /  0.0mm
02:24 74.7 °F /  23.7 °C 67.3 °F /  19.6 °C 29.8in /  1009.8hPa ESE 1.8mph /  2.9km/h 4.7mph /  7.6km/h 78% 0in /  0.0mm
02:29 74.8 °F /  23.8 °C 67.5 °F /  19.7 °C 29.8in /  1009.8hPa ENE 2.2mph /  3.5km/h 4.6mph /  7.4km/h 78% 0in /  0.0mm
02:34 74.7 °F /  23.7 °C 67.5 °F /  19.7 °C 29.8in /  1009.8hPa Este 2.4mph /  3.9km/h 5mph /  8km/h 78% 0in /  0.0mm
02:39 74.7 °F /  23.7 °C 67.3 °F /  19.6 °C 29.8in /  1010.2hPa ESE 2.2mph /  3.5km/h 5mph /  8km/h 78% 0in /  0.0mm
02:44 74.7 °F /  23.7 °C 67.3 °F /  19.6 °C 29.8in /  1010.2hPa Sur 2mph /  3.2km/h 3.5mph /  5.6km/h 78% 0in /  0.0mm
02:49 74.8 °F /  23.8 °C 67.5 °F /  19.7 °C 29.8in /  1010.2hPa Sur 1.9mph /  3km/h 3mph /  4.8km/h 78% 0in /  0.0mm
02:54 74.8 °F /  23.8 °C 67.6 °F /  19.8 °C 29.8in /  1010.5hPa ENE 1.8mph /  2.9km/h 3mph /  4.8km/h 78.5% 0in /  0.0mm
02:59 74.8 °F /  23.8 °C 67.8 °F /  19.9 °C 29.8in /  1010.5hPa NO 1.8mph /  2.9km/h 5.2mph /  8.4km/h 79% 0in /  0.0mm
03:04 74.7 °F /  23.7 °C 67.6 °F /  19.8 °C 29.8in /  1010.5hPa NNO 1.8mph /  2.9km/h 5mph /  8km/h 79% 0in /  0.0mm
03:09 74.5 °F /  23.6 °C 67.8 °F /  19.9 °C 29.8in /  1010.5hPa NO 2.5mph /  4km/h 5mph /  8km/h 79.9% 0in /  0.0mm
03:14 74.3 °F /  23.5 °C 67.6 °F /  19.8 °C 29.8in /  1010.1hPa ONO 2.9mph /  4.7km/h 3.6mph /  5.8km/h 80% 0in /  0.0mm
03:19 74.1 °F /  23.4 °C 67.6 °F /  19.8 °C 29.8in /  1010.1hPa Oeste 2.6mph /  4.2km/h 4.6mph /  7.4km/h 80% 0in /  0.0mm
03:24 74.1 °F /  23.4 °C 67.8 °F /  19.9 °C 29.8in /  1010.1hPa Oeste 2.4mph /  3.9km/h 3.6mph /  5.8km/h 80.5% 0in /  0.0mm
03:29 74.1 °F /  23.4 °C 67.8 °F /  19.9 °C 29.8in /  1009.8hPa North 2.4mph /  3.9km/h 6.2mph /  10km/h 81% 0in /  0.0mm
03:34 73.9 °F /  23.3 °C 67.8 °F /  19.9 °C 29.8in /  1009.8hPa NNO 2.4mph /  3.9km/h 4.6mph /  7.4km/h 81% 0in /  0.0mm
03:39 73.8 °F /  23.2 °C 67.6 °F /  19.8 °C 29.8in /  1009.8hPa NNE 2.7mph /  4.4km/h 5.2mph /  8.4km/h 81% 0in /  0.0mm
03:44 73.6 °F /  23.1 °C 67.5 °F /  19.7 °C 29.8in /  1009.3hPa NE 2.9mph /  4.7km/h 5.8mph /  9.3km/h 81% 0in /  0.0mm
03:49 73.6 °F /  23.1 °C 67.6 °F /  19.8 °C 29.8in /  1009.3hPa ENE 3.4mph /  5.4km/h 6.2mph /  10km/h 82% 0in /  0.0mm
03:54 73.4 °F /  23 °C 67.8 °F /  19.9 °C 29.8in /  1009.3hPa NE 3.6mph /  5.8km/h 6.9mph /  11.1km/h 82.9% 0in /  0.0mm
03:59 73.2 °F /  22.9 °C 68 °F /  20 °C 29.8in /  1009.0hPa NE 3.6mph /  5.8km/h 4.7mph /  7.6km/h 83.6% 0in /  0.0mm
04:04 73 °F /  22.8 °C 68 °F /  20 °C 29.8in /  1009.0hPa ENE 3.6mph /  5.8km/h 5.2mph /  8.4km/h 84% 0in /  0.0mm
04:09 73 °F /  22.8 °C 68.2 °F /  20.1 °C 29.8in /  1009.0hPa Este 3.2mph /  5.1km/h 5mph /  8km/h 84.6% 0in /  0.0mm
04:14 73 °F /  22.8 °C 68.4 °F /  20.2 °C 29.8in /  1009.0hPa ENE 2.9mph /  4.7km/h 5mph /  8km/h 85% 0in /  0.0mm
04:19 72.9 °F /  22.7 °C 68.2 °F /  20.1 °C 29.8in /  1009.0hPa NE 2.9mph /  4.7km/h 5.9mph /  9.5km/h 85% 0in /  0.0mm
04:24 72.7 °F /  22.6 °C 68 °F /  20 °C 29.8in /  1009.0hPa NE 2.9mph /  4.7km/h 6mph /  9.7km/h 85% 0in /  0.0mm
04:29 72.7 °F /  22.6 °C 67.8 °F /  19.9 °C 29.8in /  1008.8hPa NE 2.9mph /  4.7km/h 5mph /  8km/h 85% 0in /  0.0mm
04:34 72.7 °F /  22.6 °C 68.2 °F /  20.1 °C 29.8in /  1008.8hPa NE 2.9mph /  4.7km/h 4.6mph /  7.4km/h 85.7% 0in /  0.0mm
04:39 72.7 °F /  22.6 °C 68 °F /  20 °C 29.8in /  1008.8hPa NE 2.9mph /  4.7km/h 4.7mph /  7.6km/h 85.2% 0in /  0.0mm
04:44 72.7 °F /  22.6 °C 68.2 °F /  20.1 °C 29.8in /  1008.5hPa NE 2.9mph /  4.7km/h 5mph /  8km/h 85.8% 0in /  0.0mm
04:49 72.9 °F /  22.7 °C 68.4 °F /  20.2 °C 29.8in /  1008.5hPa NE 2.3mph /  3.7km/h 5mph /  8km/h 86% 0in /  0.0mm
04:54 72.9 °F /  22.7 °C 68.4 °F /  20.2 °C 29.8in /  1008.5hPa NNO 2mph /  3.2km/h 3.5mph /  5.6km/h 86% 0in /  0.0mm
04:59 72.9 °F /  22.7 °C 68.4 °F /  20.2 °C 29.8in /  1008.5hPa ONO 1.6mph /  2.6km/h 3.5mph /  5.6km/h 86% 0in /  0.0mm
05:04 72.9 °F /  22.7 °C 68.4 °F /  20.2 °C 29.8in /  1008.5hPa ONO 1.4mph /  2.2km/h 3.1mph /  5km/h 86% 0in /  0.0mm
05:09 72.7 °F /  22.6 °C 68.2 °F /  20.1 °C 29.8in /  1008.5hPa ONO 1.6mph /  2.6km/h 3.6mph /  5.8km/h 86% 0in /  0.0mm
05:14 72.7 °F /  22.6 °C 68.2 °F /  20.1 °C 29.8in /  1008.2hPa NO 1.8mph /  2.9km/h 4mph /  6.4km/h 86% 0in /  0.0mm
05:19 72.5 °F /  22.5 °C 68.2 °F /  20.1 °C 29.8in /  1008.2hPa SO 1.8mph /  2.9km/h 4.6mph /  7.4km/h 86% 0in /  0.0mm
05:24 72.5 °F /  22.5 °C 68.4 °F /  20.2 °C 29.8in /  1008.2hPa SE 1.8mph /  2.9km/h 4.7mph /  7.6km/h 86.8% 0in /  0.0mm
05:29 72.5 °F /  22.5 °C 68.4 °F /  20.2 °C 29.8in /  1008.2hPa Sur 2.5mph /  4.1km/h 7.4mph /  11.9km/h 87% 0in /  0.0mm
05:34 72.5 °F /  22.5 °C 68.4 °F /  20.2 °C 29.8in /  1008.2hPa Sur 3.1mph /  5km/h 8.1mph /  13km/h 87% 0in /  0.0mm
05:39 72.7 °F /  22.6 °C 68.5 °F /  20.3 °C 29.8in /  1008.9hPa SSE 4.4mph /  7.1km/h 8.5mph /  13.7km/h 87% 0in /  0.0mm
05:44 72.7 °F /  22.6 °C 68.5 °F /  20.3 °C 29.8in /  1008.9hPa Sur 5.4mph /  8.7km/h 14mph /  22.5km/h 87% 0in /  0.0mm
05:49 72.3 °F /  22.4 °C 67.8 °F /  19.9 °C 29.8in /  1008.9hPa SO 7.8mph /  12.5km/h 36mph /  57.9km/h 85.5% 0.04in /  1.0mm
05:54 69.8 °F /  21 °C 65.3 °F /  18.5 °C 29.8in /  1010.0hPa SO 9.2mph /  14.8km/h 36mph /  57.9km/h 85.6% 0.2in /  5.1mm
05:59 68.2 °F /  20.1 °C 65.1 °F /  18.4 °C 29.8in /  1010.0hPa SO 15.3mph /  24.7km/h 32.2mph /  51.8km/h 89.5% 0.26in /  6.6mm
06:04 67.3 °F /  19.6 °C 64.2 °F /  17.9 °C 29.8in /  1010.0hPa OSO 19.2mph /  30.9km/h 32mph /  51.5km/h 90% 0.26in /  6.6mm
06:09 66.9 °F /  19.4 °C 63.9 °F /  17.7 °C 29.8in /  1010.0hPa OSO 14.7mph /  23.6km/h 21mph /  33.8km/h 90% 0.26in /  6.6mm
06:14 66.7 °F /  19.3 °C 63.7 °F /  17.6 °C 29.8in /  1009.5hPa Oeste 11.8mph /  19km/h 12.7mph /  20.4km/h 90% 0.26in /  6.6mm
06:19 66.6 °F /  19.2 °C 63.5 °F /  17.5 °C 29.8in /  1009.5hPa ONO 8.9mph /  14.4km/h 13mph /  20.9km/h 90% 0.26in /  6.6mm
06:24 66.2 °F /  19 °C 63.3 °F /  17.4 °C 29.8in /  1009.5hPa Oeste 6.9mph /  11.1km/h 10mph /  16.1km/h 90% 0.26in /  6.6mm
06:29 66 °F /  18.9 °C 63 °F /  17.2 °C 29.8in /  1009.5hPa OSO 5.3mph /  8.6km/h 8.1mph /  13km/h 90% 0.26in /  6.6mm
06:34 66 °F /  18.9 °C 63.1 °F /  17.3 °C 29.8in /  1009.5hPa ONO 4.3mph /  6.9km/h 8.1mph /  13km/h 90.5% 0.26in /  6.6mm
06:39 66 °F /  18.9 °C 63.3 °F /  17.4 °C 29.8in /  1009.5hPa North 3.6mph /  5.8km/h 8mph /  12.9km/h 91% 0.26in /  6.6mm
06:44 66 °F /  18.9 °C 63.3 °F /  17.4 °C 29.8in /  1009.0hPa North 3.1mph /  5km/h 7mph /  11.3km/h 91% 0.26in /  6.6mm
06:49 66 °F /  18.9 °C 63.3 °F /  17.4 °C 29.8in /  1009.0hPa SSO 3mph /  4.8km/h 5mph /  8km/h 91% 0.26in /  6.6mm
06:54 66 °F /  18.9 °C 63.3 °F /  17.4 °C 29.8in /  1009.0hPa ESE 2.9mph /  4.7km/h 5.9mph /  9.5km/h 91% 0.2in /  5.1mm
06:59 66.2 °F /  19 °C 63.5 °F /  17.5 °C 29.8in /  1008.4hPa SE 3mph /  4.9km/h 6.9mph /  11.1km/h 91% 0in /  0.0mm
07:04 66.4 °F /  19.1 °C 63.7 °F /  17.6 °C 29.8in /  1008.4hPa SE 3.1mph /  5km/h 7.6mph /  12.2km/h 90.9% 0in /  0.0mm
07:09 66.4 °F /  19.1 °C 63.5 °F /  17.5 °C 29.8in /  1008.4hPa SSE 3.8mph /  6.1km/h 9.2mph /  14.8km/h 90.6% 0in /  0.0mm
07:14 66.4 °F /  19.1 °C 63.3 °F /  17.4 °C 29.8in /  1008.1hPa SSE 4.3mph /  6.9km/h 9.7mph /  15.6km/h 90% 0in /  0.0mm
07:19 66.6 °F /  19.2 °C 63.5 °F /  17.5 °C 29.8in /  1008.1hPa Sur 4.1mph /  6.6km/h 6.2mph /  10km/h 90% 0in /  0.0mm
07:24 66.6 °F /  19.2 °C 63.5 °F /  17.5 °C 29.8in /  1008.5hPa SSO 4mph /  6.4km/h 6.4mph /  10.3km/h 90% 0in /  0.0mm
07:29 66.7 °F /  19.3 °C 63.7 °F /  17.6 °C 29.8in /  1008.5hPa SSO 3mph /  4.8km/h 9.7mph /  15.6km/h 90% 0in /  0.0mm
07:34 66.9 °F /  19.4 °C 63.7 °F /  17.6 °C 29.8in /  1008.5hPa SSO 2.4mph /  3.9km/h 13.8mph /  22.2km/h 89.2% 0in /  0.0mm
07:39 66.9 °F /  19.4 °C 63.1 °F /  17.3 °C 29.8in /  1008.5hPa SO 4.9mph /  7.9km/h 14mph /  22.5km/h 87.5% 0in /  0.0mm
07:44 66.9 °F /  19.4 °C 63 °F /  17.2 °C 29.8in /  1008.1hPa SO 6.4mph /  10.3km/h 12mph /  19.3km/h 86.8% 0in /  0.0mm
07:49 67.1 °F /  19.5 °C 62.8 °F /  17.1 °C 29.8in /  1008.1hPa SO 5.8mph /  9.3km/h 10.2mph /  16.4km/h 85.9% 0in /  0.0mm
07:54 67.5 °F /  19.7 °C 62.8 °F /  17.1 °C 29.8in /  1008.1hPa SO 5.4mph /  8.7km/h 10.4mph /  16.7km/h 85% 0in /  0.0mm
07:59 67.6 °F /  19.8 °C 62.8 °F /  17.1 °C 29.8in /  1008.1hPa SO 5.3mph /  8.5km/h 10mph /  16.1km/h 84.4% 0.06in /  1.6mm
08:04 67.8 °F /  19.9 °C 62.8 °F /  17.1 °C 29.8in /  1008.1hPa SO 5.2mph /  8.4km/h 10mph /  16.1km/h 84.1% 0.06in /  1.6mm
08:09 67.8 °F /  19.9 °C 62.8 °F /  17.1 °C 29.8in /  1008.3hPa SSO 5.3mph /  8.6km/h 10.4mph /  16.7km/h 84% 0.06in /  1.6mm
08:14 67.8 °F /  19.9 °C 62.8 °F /  17.1 °C 29.8in /  1008.3hPa SSO 5.4mph /  8.7km/h 11.8mph /  19km/h 83.6% 0.06in /  1.6mm
08:19 67.8 °F /  19.9 °C 62.4 °F /  16.9 °C 29.8in /  1008.3hPa SSO 6mph /  9.7km/h 12mph /  19.3km/h 83% 0.06in /  1.6mm
08:24 67.8 °F /  19.9 °C 62.4 °F /  16.9 °C 29.8in /  1008.8hPa Sur 6.4mph /  10.3km/h 10.4mph /  16.7km/h 82.8% 0.06in /  1.6mm
08:29 68 °F /  20 °C 62.6 °F /  17 °C 29.8in /  1008.8hPa Sur 6.2mph /  9.9km/h 10.4mph /  16.7km/h 82.9% 0.06in /  1.6mm
08:34 68.2 °F /  20.1 °C 62.6 °F /  17 °C 29.8in /  1008.8hPa Sur 5.9mph /  9.5km/h 10mph /  16.1km/h 82.3% 0.06in /  1.6mm
08:39 68.4 °F /  20.2 °C 62.6 °F /  17 °C 29.8in /  1009.0hPa SSO 5.6mph /  9km/h 10mph /  16.1km/h 82.2% 0.06in /  1.6mm
08:44 68.5 °F /  20.3 °C 62.6 °F /  17 °C 29.8in /  1009.0hPa SO 5.4mph /  8.7km/h 10.4mph /  16.7km/h 81.5% 0.06in /  1.6mm
08:49 68.7 °F /  20.4 °C 62.4 °F /  16.9 °C 29.8in /  1009.0hPa SSO 4.6mph /  7.4km/h 6.9mph /  11.1km/h 80.5% 0.06in /  1.6mm
08:54 69.1 °F /  20.6 °C 62.4 °F /  16.9 °C 29.8in /  1009.2hPa Sur 4mph /  6.4km/h 10.4mph /  16.7km/h 79% 0.06in /  1.6mm
08:59 69.4 °F /  20.8 °C 62.4 °F /  16.9 °C 29.8in /  1009.2hPa Sur 4.4mph /  7.1km/h 13.8mph /  22.2km/h 78.1% 0in /  0.0mm
09:04 69.8 °F /  21 °C 62.2 °F /  16.8 °C 29.8in /  1009.2hPa SSO 4.7mph /  7.6km/h 14mph /  22.5km/h 77% 0in /  0.0mm
09:09 70 °F /  21.1 °C 62.2 °F /  16.8 °C 29.8in /  1009.2hPa SSO 5.7mph /  9.2km/h 10.4mph /  16.7km/h 76.8% 0in /  0.0mm
09:14 70.2 °F /  21.2 °C 62.4 °F /  16.9 °C 29.8in /  1009.2hPa SSO 6.4mph /  10.3km/h 10.4mph /  16.7km/h 77% 0in /  0.0mm
09:19 70.3 °F /  21.3 °C 62.6 °F /  17 °C 29.8in /  1009.2hPa SSO 6.3mph /  10.1km/h 11.5mph /  18.5km/h 76.9% 0in /  0.0mm
09:24 70.5 °F /  21.4 °C 63 °F /  17.2 °C 29.8in /  1009.2hPa SSO 6.2mph /  10km/h 8.1mph /  13km/h 77% 0in /  0.0mm
09:29 70.9 °F /  21.6 °C 62.8 °F /  17.1 °C 29.8in /  1009.2hPa SO 5.7mph /  9.2km/h 12.3mph /  19.8km/h 75.5% 0in /  0.0mm
09:34 71.1 °F /  21.7 °C 62.4 °F /  16.9 °C 29.8in /  1009.2hPa SO 5.4mph /  8.7km/h 13mph /  20.9km/h 74.1% 0in /  0.0mm
09:39 71.2 °F /  21.8 °C 62.6 °F /  17 °C 29.8in /  1009.2hPa SSO 5mph /  8km/h 13mph /  20.9km/h 74.5% 0in /  0.0mm
09:44 71.6 °F /  22 °C 62.8 °F /  17.1 °C 29.8in /  1009.2hPa SO 4.7mph /  7.6km/h 6.9mph /  11.1km/h 74% 0in /  0.0mm
09:49 72 °F /  22.2 °C 62.8 °F /  17.1 °C 29.8in /  1009.2hPa SO 3.2mph /  5.1km/h 9.2mph /  14.8km/h 72.9% 0in /  0.0mm
09:54 72.1 °F /  22.3 °C 62.1 °F /  16.7 °C 29.8in /  1009.2hPa OSO 2mph /  3.2km/h 11.5mph /  18.5km/h 70.8% 0in /  0.0mm
09:59 72.1 °F /  22.3 °C 62.1 °F /  16.7 °C 29.8in /  1009.2hPa SO 3.6mph /  5.8km/h 12mph /  19.3km/h 70.4% 0in /  0.0mm
10:04 72.7 °F /  22.6 °C 62.1 °F /  16.7 °C 29.8in /  1009.2hPa Oeste 4.7mph /  7.6km/h 12mph /  19.3km/h 69.5% 0in /  0.0mm
10:09 72.9 °F /  22.7 °C 62.1 °F /  16.7 °C 29.8in /  1009.2hPa OSO 2.9mph /  4.6km/h 8.5mph /  13.7km/h 69.1% 0in /  0.0mm
10:14 73 °F /  22.8 °C 62.1 °F /  16.7 °C 29.8in /  1009.2hPa OSO 1.8mph /  2.9km/h 5.2mph /  8.4km/h 68.3% 0in /  0.0mm
10:19 73.4 °F /  23 °C 62.4 °F /  16.9 °C 29.8in /  1009.2hPa OSO 0.7mph /  1.1km/h 5mph /  8km/h 68.3% 0in /  0.0mm
10:24 73.8 °F /  23.2 °C 62.1 °F /  16.7 °C 29.8in /  1009.4hPa Calm   5.9mph /  9.5km/h 67.1% 0in /  0.0mm
10:29 73.8 °F /  23.2 °C 62.2 °F /  16.8 °C 29.8in /  1009.4hPa OSO 0.9mph /  1.4km/h 6.9mph /  11.1km/h 67.1% 0in /  0.0mm
10:34 73.9 °F /  23.3 °C 62.4 °F /  16.9 °C 29.8in /  1009.4hPa OSO 1.4mph /  2.3km/h 6.9mph /  11.1km/h 67.5% 0in /  0.0mm
10:39 74.1 °F /  23.4 °C 62.4 °F /  16.9 °C 29.8in /  1009.4hPa Oeste 1.8mph /  2.9km/h 7mph /  11.3km/h 67% 0in /  0.0mm
10:44 74.1 °F /  23.4 °C 62.6 °F /  17 °C 29.8in /  1009.4hPa NNO 2mph /  3.2km/h 4.6mph /  7.4km/h 67.1% 0in /  0.0mm
10:49 74.5 °F /  23.6 °C 63 °F /  17.2 °C 29.8in /  1009.4hPa North 0.8mph /  1.3km/h 3.6mph /  5.8km/h 67.4% 0in /  0.0mm
10:54 74.8 °F /  23.8 °C 62.8 °F /  17.1 °C 29.8in /  1009.4hPa Calm   4.6mph /  7.4km/h 66.1% 0in /  0.0mm
10:59 75.2 °F /  24 °C 63.1 °F /  17.3 °C 29.8in /  1009.3hPa Calm   5mph /  8km/h 66% 0in /  0.0mm
11:04 75.7 °F /  24.3 °C 62.8 °F /  17.1 °C 29.8in /  1009.3hPa Calm     64.4% 0in /  0.0mm
11:09 75.9 °F /  24.4 °C 63 °F /  17.2 °C 29.8in /  1009.3hPa Calm     64% 0in /  0.0mm
11:14 76.3 °F /  24.6 °C 62.8 °F /  17.1 °C 29.8in /  1009.3hPa Calm     62.9% 0in /  0.0mm
11:19 76.6 °F /  24.8 °C 62.4 °F /  16.9 °C 29.8in /  1009.3hPa Calm     61.8% 0in /  0.0mm
11:24 76.6 °F /  24.8 °C 62.6 °F /  17 °C 29.8in /  1009.3hPa Calm     61.9% 0in /  0.0mm
11:29 76.6 °F /  24.8 °C 62.8 °F /  17.1 °C 29.8in /  1009.3hPa Calm     62% 0in /  0.0mm
11:34 77.2 °F /  25.1 °C 63 °F /  17.2 °C 29.8in /  1009.3hPa Calm     61.4% 0in /  0.0mm
11:39 77.5 °F /  25.3 °C 62.6 °F /  17 °C 29.8in /  1009.3hPa Calm     60.1% 0in /  0.0mm
11:44 77.9 °F /  25.5 °C 62.8 °F /  17.1 °C 29.8in /  1009.3hPa Calm   3.6mph /  5.8km/h 59.5% 0in /  0.0mm
11:49 78.1 °F /  25.6 °C 62.6 °F /  17 °C 29.8in /  1009.3hPa Calm   2.3mph /  3.7km/h 59% 0in /  0.0mm
11:54 78.3 °F /  25.7 °C 62.6 °F /  17 °C 29.8in /  1009.3hPa Calm   2.3mph /  3.7km/h 58.6% 0in /  0.0mm
11:59 78.4 °F /  25.8 °C 62.6 °F /  17 °C 29.8in /  1009.2hPa Calm   2mph /  3.2km/h 58.4% 0in /  0.0mm
12:04 78.3 °F /  25.7 °C 62.4 °F /  16.9 °C 29.8in /  1009.2hPa Calm   2.9mph /  4.7km/h 58.1% 0in /  0.0mm
12:09 78.3 °F /  25.7 °C 62.4 °F /  16.9 °C 29.8in /  1009.2hPa Calm   6.2mph /  10km/h 58.1% 0in /  0.0mm
12:14 78.6 °F /  25.9 °C 61.7 °F /  16.5 °C 29.8in /  1009.0hPa Calm   7.4mph /  11.9km/h 56.2% 0in /  0.0mm
12:19 79 °F /  26.1 °C 61 °F /  16.1 °C 29.8in /  1009.0hPa ESE 1.1mph /  1.7km/h 5.2mph /  8.4km/h 54% 0in /  0.0mm
12:24 79.3 °F /  26.3 °C 61 °F /  16.1 °C 29.8in /  1009.0hPa SE 1.8mph /  2.9km/h 6.9mph /  11.1km/h 53.4% 0in /  0.0mm
12:29 79.5 °F /  26.4 °C 61 °F /  16.1 °C 29.8in /  1009.0hPa SSE 1.6mph /  2.5km/h 7mph /  11.3km/h 53% 0in /  0.0mm
12:34 79.7 °F /  26.5 °C 62.2 °F /  16.8 °C 29.8in /  1009.0hPa ESE 1.4mph /  2.2km/h 5.8mph /  9.3km/h 55.3% 0in /  0.0mm
12:39 80.1 °F /  26.7 °C 63 °F /  17.2 °C 29.8in /  1009.0hPa Este 0.5mph /  0.8km/h 6mph /  9.7km/h 55.9% 0in /  0.0mm
12:44 80.4 °F /  26.9 °C 63.3 °F /  17.4 °C 29.8in /  1008.8hPa Calm   12.7mph /  20.4km/h 55.9% 0in /  0.0mm
12:49 80.8 °F /  27.1 °C 63.1 °F /  17.3 °C 29.8in /  1008.8hPa Este 2.2mph /  3.6km/h 13mph /  20.9km/h 55.1% 0in /  0.0mm
12:54 80.8 °F /  27.1 °C 62.8 °F /  17.1 °C 29.8in /  1008.8hPa Este 3.6mph /  5.8km/h 12.3mph /  19.8km/h 54.4% 0in /  0.0mm
12:59 80.6 °F /  27 °C 62.4 °F /  16.9 °C 29.8in /  1008.7hPa Este 5.3mph /  8.5km/h 13mph /  20.9km/h 53.8% 0in /  0.0mm
13:04 80.4 °F /  26.9 °C 62.2 °F /  16.8 °C 29.8in /  1008.7hPa ESE 6.4mph /  10.3km/h 13.8mph /  22.2km/h 54% 0in /  0.0mm
13:09 80.4 °F /  26.9 °C 62.2 °F /  16.8 °C 29.8in /  1008.7hPa Este 6.7mph /  10.8km/h 10.7mph /  17.2km/h 54.1% 0in /  0.0mm
13:14 80.8 °F /  27.1 °C 62.4 °F /  16.9 °C 29.8in /  1008.7hPa NE 6.9mph /  11.1km/h 9.2mph /  14.8km/h 53.8% 0in /  0.0mm
13:19 80.8 °F /  27.1 °C 62.1 °F /  16.7 °C 29.8in /  1008.7hPa NE 5.9mph /  9.5km/h 9.2mph /  14.8km/h 53% 0in /  0.0mm
13:24 81 °F /  27.2 °C 62.1 °F /  16.7 °C 29.8in /  1008.7hPa NE 5.4mph /  8.7km/h 9mph /  14.5km/h 52.8% 0in /  0.0mm
13:29 81.1 °F /  27.3 °C 61.7 °F /  16.5 °C 29.8in /  1008.4hPa NNE 4.7mph /  7.6km/h 10.7mph /  17.2km/h 52% 0in /  0.0mm
13:34 81.1 °F /  27.3 °C 61.3 °F /  16.3 °C 29.8in /  1008.4hPa North 4.3mph /  6.9km/h 11mph /  17.7km/h 51% 0in /  0.0mm
13:39 81.1 °F /  27.3 °C 61.2 °F /  16.2 °C 29.8in /  1008.4hPa NE 5mph /  8.1km/h 9.7mph /  15.6km/h 50.7% 0in /  0.0mm
13:44 81 °F /  27.2 °C 60.6 °F /  15.9 °C 29.8in /  1008.4hPa NE 5.4mph /  8.7km/h 9.2mph /  14.8km/h 50.1% 0in /  0.0mm
13:49 81.3 °F /  27.4 °C 60.8 °F /  16 °C 29.8in /  1008.4hPa North 5mph /  8.1km/h 8.1mph /  13km/h 49.8% 0in /  0.0mm
13:54 81.9 °F /  27.7 °C 60.3 °F /  15.7 °C 29.8in /  1008.4hPa NNE 4.7mph /  7.6km/h 6.2mph /  10km/h 48.1% 0in /  0.0mm
13:59 82 °F /  27.8 °C 60.3 °F /  15.7 °C 29.8in /  1008.2hPa Este 4mph /  6.5km/h 7.4mph /  11.9km/h 47.6% 0in /  0.0mm
14:04 82.6 °F /  28.1 °C 60.4 °F /  15.8 °C 29.8in /  1008.2hPa Este 3.6mph /  5.8km/h 9.2mph /  14.8km/h 47.2% 0in /  0.0mm
14:09 82.9 °F /  28.3 °C 60.4 °F /  15.8 °C 29.8in /  1008.2hPa ENE 4mph /  6.5km/h 9mph /  14.5km/h 46.5% 0in /  0.0mm
14:14 83.3 °F /  28.5 °C 60.4 °F /  15.8 °C 29.8in /  1008.0hPa NNE 4.3mph /  6.9km/h 8.1mph /  13km/h 46.3% 0in /  0.0mm
14:19 83.3 °F /  28.5 °C 61.3 °F /  16.3 °C 29.8in /  1008.0hPa NE 4.1mph /  6.6km/h 9.2mph /  14.8km/h 47.7% 0in /  0.0mm
14:24 83.1 °F /  28.4 °C 60.6 °F /  15.9 °C 29.8in /  1008.0hPa NNO 4mph /  6.4km/h 10.4mph /  16.7km/h 46.5% 0in /  0.0mm
14:29 82.9 °F /  28.3 °C 60.6 °F /  15.9 °C 29.8in /  1008.0hPa NO 5.1mph /  8.2km/h 10.7mph /  17.2km/h 47% 0in /  0.0mm
14:34 82.9 °F /  28.3 °C 60.3 °F /  15.7 °C 29.8in /  1008.0hPa Oeste 5.9mph /  9.5km/h 11mph /  17.7km/h 46.2% 0in /  0.0mm
14:39 83.3 °F /  28.5 °C 61.3 °F /  16.3 °C 29.8in /  1008.0hPa NNE 5.2mph /  8.3km/h 10mph /  16.1km/h 47.6% 0in /  0.0mm
14:44 83.7 °F /  28.7 °C 62.8 °F /  17.1 °C 29.8in /  1007.8hPa NNO 4.7mph /  7.6km/h 13.5mph /  21.7km/h 49.5% 0in /  0.0mm
14:49 83.5 °F /  28.6 °C 62.6 °F /  17 °C 29.8in /  1007.8hPa North 5.6mph /  9km/h 13.8mph /  22.2km/h 49.4% 0in /  0.0mm
14:54 83.5 °F /  28.6 °C 62.4 °F /  16.9 °C 29.8in /  1007.8hPa NNO 6.2mph /  10km/h 11.4mph /  18.3km/h 49.1% 0in /  0.0mm
14:59 83.5 °F /  28.6 °C 62.4 °F /  16.9 °C 29.8in /  1007.7hPa North 6mph /  9.7km/h 12mph /  19.3km/h 49% 0in /  0.0mm
15:04 83.1 °F /  28.4 °C 62.1 °F /  16.7 °C 29.8in /  1007.7hPa NNE 5.9mph /  9.5km/h 13.8mph /  22.2km/h 49% 0in /  0.0mm
15:09 82.9 °F /  28.3 °C 62.1 °F /  16.7 °C 29.8in /  1007.7hPa North 6.2mph /  10km/h 11.5mph /  18.5km/h 49.6% 0in /  0.0mm
15:14 83.1 °F /  28.4 °C 62.1 °F /  16.7 °C 29.8in /  1007.6hPa NNO 6.4mph /  10.3km/h 12mph /  19.3km/h 49% 0in /  0.0mm
15:19 83.7 °F /  28.7 °C 61.7 °F /  16.5 °C 29.8in /  1007.6hPa NO 5.7mph /  9.2km/h 8.5mph /  13.7km/h 47.9% 0in /  0.0mm
15:24 84 °F /  28.9 °C 61.7 °F /  16.5 °C 29.8in /  1007.6hPa NNE 5.2mph /  8.4km/h 9.7mph /  15.6km/h 47.1% 0in /  0.0mm
15:29 84.4 °F /  29.1 °C 60.8 °F /  16 °C 29.8in /  1007.4hPa NE 4.9mph /  7.9km/h 10.7mph /  17.2km/h 45.1% 0in /  0.0mm
15:34 84 °F /  28.9 °C 60.3 °F /  15.7 °C 29.8in /  1007.4hPa NNE 4.7mph /  7.6km/h 10.4mph /  16.7km/h 44.8% 0in /  0.0mm
15:39 84 °F /  28.9 °C 60.1 °F /  15.6 °C 29.8in /  1007.5hPa North 6.1mph /  9.8km/h 10mph /  16.1km/h 44.3% 0in /  0.0mm
15:44 84 °F /  28.9 °C 60.3 °F /  15.7 °C 29.8in /  1007.5hPa NNE 6.9mph /  11.1km/h 9mph /  14.5km/h 44.7% 0in /  0.0mm
15:49 84.2 °F /  29 °C 60.3 °F /  15.7 °C 29.8in /  1007.5hPa North 5.2mph /  8.4km/h 5.8mph /  9.3km/h 44.5% 0in /  0.0mm
15:54 84.6 °F /  29.2 °C 60.4 °F /  15.8 °C 29.8in /  1007.5hPa NNE 4mph /  6.4km/h 6.9mph /  11.1km/h 44.5% 0in /  0.0mm
15:59 84.4 °F /  29.1 °C 60.6 °F /  15.9 °C 29.8in /  1007.4hPa NNE 4mph /  6.5km/h 7.4mph /  11.9km/h 44.7% 0in /  0.0mm
16:04 84.4 °F /  29.1 °C 60.8 °F /  16 °C 29.8in /  1007.4hPa NE 4mph /  6.5km/h 7mph /  11.3km/h 45% 0in /  0.0mm
16:09 84.6 °F /  29.2 °C 60.6 °F /  15.9 °C 29.8in /  1007.4hPa ESE 3.5mph /  5.6km/h 6.9mph /  11.1km/h 44.5% 0in /  0.0mm
16:14 84.9 °F /  29.4 °C 60.4 °F /  15.8 °C 29.7in /  1007.3hPa SE 3.1mph /  5km/h 6.9mph /  11.1km/h 43.8% 0in /  0.0mm
16:19 85.3 °F /  29.6 °C 60.3 °F /  15.7 °C 29.7in /  1007.3hPa ENE 3.4mph /  5.5km/h 7.4mph /  11.9km/h 43.1% 0in /  0.0mm
16:24 85.3 °F /  29.6 °C 60.3 °F /  15.7 °C 29.7in /  1007.3hPa Este 3.6mph /  5.8km/h 10.7mph /  17.2km/h 43% 0in /  0.0mm
16:29 85.5 °F /  29.7 °C 60.4 °F /  15.8 °C 29.7in /  1007.1hPa SE 4.5mph /  7.3km/h 11.8mph /  19km/h 43.1% 0in /  0.0mm
16:34 85.5 °F /  29.7 °C 60.1 °F /  15.6 °C 29.7in /  1007.1hPa SE 5.2mph /  8.4km/h 12mph /  19.3km/h 42.3% 0in /  0.0mm
16:39 85.6 °F /  29.8 °C 60.3 °F /  15.7 °C 29.7in /  1007.1hPa NE 5.2mph /  8.4km/h 10.4mph /  16.7km/h 42.4% 0in /  0.0mm
16:44 85.8 °F /  29.9 °C 59.5 °F /  15.3 °C 29.7in /  1006.9hPa NNO 5.2mph /  8.4km/h 6.9mph /  11.1km/h 41.2% 0in /  0.0mm
16:49 86.2 °F /  30.1 °C 59.7 °F /  15.4 °C 29.7in /  1006.9hPa ESE 3.9mph /  6.3km/h 6.9mph /  11.1km/h 41.1% 0in /  0.0mm
16:54 86.5 °F /  30.3 °C 59.9 °F /  15.5 °C 29.7in /  1006.9hPa SSE 3.1mph /  5km/h 9.2mph /  14.8km/h 40.9% 0in /  0.0mm
16:59 86.5 °F /  30.3 °C 59.2 °F /  15.1 °C 29.7in /  1006.8hPa SSE 3.7mph /  5.9km/h 10.4mph /  16.7km/h 40% 0in /  0.0mm
17:04 86.2 °F /  30.1 °C 59.4 °F /  15.2 °C 29.7in /  1006.8hPa SE 4mph /  6.5km/h 10mph /  16.1km/h 40.6% 0in /  0.0mm
17:09 86.4 °F /  30.2 °C 59.9 °F /  15.5 °C 29.7in /  1006.8hPa SSE 4.7mph /  7.6km/h 11.4mph /  18.3km/h 41% 0in /  0.0mm
17:14 86.4 °F /  30.2 °C 59 °F /  15 °C 29.7in /  1006.8hPa SSO 5.2mph /  8.4km/h 12mph /  19.3km/h 40% 0in /  0.0mm
17:19 86.4 °F /  30.2 °C 59.2 °F /  15.1 °C 29.7in /  1006.8hPa OSO 4.9mph /  7.9km/h 10.4mph /  16.7km/h 40% 0in /  0.0mm
17:24 86.2 °F /  30.1 °C 59.2 °F /  15.1 °C 29.7in /  1006.8hPa OSO 4.7mph /  7.6km/h 8.1mph /  13km/h 40.1% 0in /  0.0mm
17:29 86.5 °F /  30.3 °C 59.4 °F /  15.2 °C 29.7in /  1006.8hPa SSO 4.7mph /  7.6km/h 9.7mph /  15.6km/h 40% 0in /  0.0mm
17:34 86.7 °F /  30.4 °C 59.4 °F /  15.2 °C 29.7in /  1006.8hPa Sur 4.7mph /  7.6km/h 10.7mph /  17.2km/h 39.9% 0in /  0.0mm
17:39 86.5 °F /  30.3 °C 59.2 °F /  15.1 °C 29.7in /  1006.8hPa SE 5.4mph /  8.7km/h 9.2mph /  14.8km/h 39.7% 0in /  0.0mm
17:44 86.5 °F /  30.3 °C 59.4 °F /  15.2 °C 29.7in /  1006.8hPa SE 5.9mph /  9.5km/h 9.2mph /  14.8km/h 40% 0in /  0.0mm
17:49 86.5 °F /  30.3 °C 59.4 °F /  15.2 °C 29.7in /  1006.8hPa ESE 5.2mph /  8.3km/h 9.2mph /  14.8km/h 40% 0in /  0.0mm
17:54 86.5 °F /  30.3 °C 60.3 °F /  15.7 °C 29.7in /  1006.8hPa SE 4.7mph /  7.6km/h 15.9mph /  25.6km/h 41.4% 0in /  0.0mm
17:59 85.8 °F /  29.9 °C 60.4 °F /  15.8 °C 29.7in /  1006.8hPa ESE 7.1mph /  11.4km/h 16.3mph /  26.2km/h 42.6% 0in /  0.0mm
18:04 85.6 °F /  29.8 °C 60.6 °F /  15.9 °C 29.7in /  1006.8hPa SE 8.5mph /  13.7km/h 16mph /  25.7km/h 43% 0in /  0.0mm
18:09 85.5 °F /  29.7 °C 60.4 °F /  15.8 °C 29.7in /  1006.9hPa SE 8.9mph /  14.3km/h 15mph /  24.1km/h 43% 0in /  0.0mm
18:14 85.5 °F /  29.7 °C 60.3 °F /  15.7 °C 29.7in /  1006.9hPa SE 9.2mph /  14.8km/h 14mph /  22.5km/h 42.9% 0in /  0.0mm
18:19 85.6 °F /  29.8 °C 60.1 °F /  15.6 °C 29.7in /  1006.9hPa SE 7.8mph /  12.5km/h 12.5mph /  20.1km/h 42.2% 0in /  0.0mm
18:24 85.5 °F /  29.7 °C 59.7 °F /  15.4 °C 29.7in /  1007.1hPa SE 6.9mph /  11.1km/h 13.8mph /  22.2km/h 42% 0in /  0.0mm
18:29 85.3 °F /  29.6 °C 59.9 °F /  15.5 °C 29.7in /  1007.1hPa SSE 7.6mph /  12.3km/h 14mph /  22.5km/h 42.5% 0in /  0.0mm
18:34 84.9 °F /  29.4 °C 59.7 °F /  15.4 °C 29.7in /  1007.1hPa SSE 8.1mph /  13km/h 15.9mph /  25.6km/h 42.9% 0in /  0.0mm
18:39 84.6 °F /  29.2 °C 59.5 °F /  15.3 °C 29.7in /  1007.2hPa SE 9.1mph /  14.6km/h 16.1mph /  25.9km/h 43% 0in /  0.0mm
18:44 84.6 °F /  29.2 °C 59.5 °F /  15.3 °C 29.7in /  1007.2hPa SE 9.7mph /  15.6km/h 14mph /  22.5km/h 43% 0in /  0.0mm
18:49 84.6 °F /  29.2 °C 59.5 °F /  15.3 °C 29.7in /  1007.2hPa SE 9.1mph /  14.7km/h 13.8mph /  22.2km/h 43% 0in /  0.0mm
18:54 84.6 °F /  29.2 °C 59.5 °F /  15.3 °C 29.7in /  1007.2hPa SE 8.7mph /  14km/h 16.1mph /  25.9km/h 43% 0in /  0.0mm
18:59 84.6 °F /  29.2 °C 59.5 °F /  15.3 °C 29.7in /  1007.2hPa SE 8mph /  12.9km/h 15mph /  24.1km/h 43% 0in /  0.0mm
19:04 84.4 °F /  29.1 °C 59.4 °F /  15.2 °C 29.7in /  1007.2hPa SE 7.6mph /  12.2km/h 15mph /  24.1km/h 43% 0in /  0.0mm
19:09 84.2 °F /  29 °C 59.2 °F /  15.1 °C 29.8in /  1007.4hPa SSE 8.1mph /  13.1km/h 18.4mph /  29.6km/h 43% 0in /  0.0mm
19:14 83.8 °F /  28.8 °C 59.5 °F /  15.3 °C 29.8in /  1007.4hPa SSE 8.5mph /  13.7km/h 15mph /  24.1km/h 43.8% 0in /  0.0mm
19:19 83.8 °F /  28.8 °C 59.5 °F /  15.3 °C 29.8in /  1007.4hPa SE 9.4mph /  15.1km/h 14mph /  22.5km/h 44% 0in /  0.0mm
19:24 84 °F /  28.9 °C 59.7 °F /  15.4 °C 29.8in /  1007.4hPa SE 10mph /  16.1km/h 12.5mph /  20.1km/h 44% 0in /  0.0mm
19:29 84 °F /  28.9 °C 59.5 °F /  15.3 °C 29.8in /  1007.4hPa SE 8.8mph /  14.2km/h 17.3mph /  27.8km/h 43.8% 0in /  0.0mm
19:34 83.8 °F /  28.8 °C 59.5 °F /  15.3 °C 29.8in /  1007.4hPa SE 8.1mph /  13km/h 13mph /  20.9km/h 44% 0in /  0.0mm
19:39 83.8 °F /  28.8 °C 59.2 °F /  15.1 °C 29.8in /  1007.5hPa SSE 7.8mph /  12.6km/h 17.3mph /  27.8km/h 43.3% 0in /  0.0mm
19:44 83.7 °F /  28.7 °C 58.8 °F /  14.9 °C 29.8in /  1007.5hPa SE 7.6mph /  12.2km/h 17mph /  27.4km/h 43% 0in /  0.0mm
19:49 83.7 °F /  28.7 °C 58.8 °F /  14.9 °C 29.8in /  1007.5hPa SE 8mph /  12.8km/h 14mph /  22.5km/h 43.1% 0in /  0.0mm
19:54 83.8 °F /  28.8 °C 59 °F /  15 °C 29.8in /  1007.6hPa SE 8.1mph /  13km/h 11.4mph /  18.3km/h 43% 0in /  0.0mm
19:59 83.7 °F /  28.7 °C 58.8 °F /  14.9 °C 29.8in /  1007.6hPa SE 6.6mph /  10.6km/h 12mph /  19.3km/h 43% 0in /  0.0mm
20:04 83.7 °F /  28.7 °C 58.8 °F /  14.9 °C 29.8in /  1007.6hPa SE 5.9mph /  9.5km/h 12mph /  19.3km/h 43% 0in /  0.0mm
20:09 83.8 °F /  28.8 °C 59 °F /  15 °C 29.8in /  1007.8hPa SE 5.9mph /  9.5km/h 10.7mph /  17.2km/h 43% 0in /  0.0mm
20:14 83.8 °F /  28.8 °C 59 °F /  15 °C 29.8in /  1007.8hPa SSE 5.9mph /  9.5km/h 11.8mph /  19km/h 42.9% 0in /  0.0mm
20:19 83.8 °F /  28.8 °C 58.3 °F /  14.6 °C 29.8in /  1007.8hPa SSE 7mph /  11.2km/h 12mph /  19.3km/h 42% 0in /  0.0mm
20:24 83.8 °F /  28.8 °C 58.5 °F /  14.7 °C 29.8in /  1007.9hPa SSE 7.6mph /  12.2km/h 12mph /  19.3km/h 42.3% 0in /  0.0mm
20:29 83.8 °F /  28.8 °C 58.8 °F /  14.9 °C 29.8in /  1007.9hPa SSE 7.1mph /  11.5km/h 10.4mph /  16.7km/h 42.8% 0in /  0.0mm
20:34 83.8 °F /  28.8 °C 59 °F /  15 °C 29.8in /  1007.9hPa SSE 6.9mph /  11.1km/h 10mph /  16.1km/h 43% 0in /  0.0mm
20:39 83.8 °F /  28.8 °C 59 °F /  15 °C 29.8in /  1007.9hPa SE 6mph /  9.7km/h 6.9mph /  11.1km/h 43% 0in /  0.0mm
20:44 83.8 °F /  28.8 °C 59 °F /  15 °C 29.8in /  1007.8hPa SE 5.4mph /  8.7km/h 6.9mph /  11.1km/h 43% 0in /  0.0mm
20:49 83.8 °F /  28.8 °C 59 °F /  15 °C 29.8in /  1007.8hPa SE 4.7mph /  7.6km/h 8.1mph /  13km/h 43% 0in /  0.0mm
20:54 83.8 °F /  28.8 °C 59.4 °F /  15.2 °C 29.8in /  1007.9hPa SSE 4.3mph /  6.9km/h 9.2mph /  14.8km/h 43.6% 0in /  0.0mm
20:59 83.5 °F /  28.6 °C 59.5 °F /  15.3 °C 29.8in /  1007.9hPa ESE 4.8mph /  7.8km/h 7.4mph /  11.9km/h 44.5% 0in /  0.0mm
21:04 83.1 °F /  28.4 °C 59.7 °F /  15.4 °C 29.8in /  1007.9hPa ESE 5.2mph /  8.4km/h 7mph /  11.3km/h 45% 0in /  0.0mm
21:09 82.9 °F /  28.3 °C 59.5 °F /  15.3 °C 29.8in /  1008.1hPa SE 4.3mph /  6.9km/h 5.4mph /  8.7km/h 45% 0in /  0.0mm
21:14 82.9 °F /  28.3 °C 59.4 °F /  15.2 °C 29.8in /  1008.1hPa SSE 3.6mph /  5.8km/h 6mph /  9.7km/h 45% 0in /  0.0mm
21:19 82.8 °F /  28.2 °C 59.4 °F /  15.2 °C 29.8in /  1008.1hPa SE 3.2mph /  5.1km/h 4.7mph /  7.6km/h 45% 0in /  0.0mm
21:24 82.6 °F /  28.1 °C 59.5 °F /  15.3 °C 29.8in /  1008.3hPa ESE 2.9mph /  4.6km/h 5.2mph /  8.4km/h 45.9% 0in /  0.0mm
21:29 82.2 °F /  27.9 °C 59.5 °F /  15.3 °C 29.8in /  1008.3hPa ESE 2.9mph /  4.7km/h 5mph /  8km/h 46.1% 0in /  0.0mm
21:34 82 °F /  27.8 °C 59.5 °F /  15.3 °C 29.8in /  1008.3hPa ESE 2.9mph /  4.7km/h 4.7mph /  7.6km/h 46.4% 0in /  0.0mm
21:39 81.9 °F /  27.7 °C 59.7 °F /  15.4 °C 29.8in /  1008.5hPa ESE 2.9mph /  4.6km/h 5.2mph /  8.4km/h 46.9% 0in /  0.0mm
21:44 81.7 °F /  27.6 °C 59.5 °F /  15.3 °C 29.8in /  1008.5hPa ESE 2.9mph /  4.7km/h 4.7mph /  7.6km/h 47% 0in /  0.0mm
21:49 81.3 °F /  27.4 °C 59.4 °F /  15.2 °C 29.8in /  1008.5hPa ESE 2.9mph /  4.6km/h 5mph /  8km/h 47.2% 0in /  0.0mm
21:54 81.3 °F /  27.4 °C 59.2 °F /  15.1 °C 29.8in /  1008.8hPa SE 2.9mph /  4.7km/h 4.6mph /  7.4km/h 47.1% 0in /  0.0mm
21:59 81.1 °F /  27.3 °C 59.5 °F /  15.3 °C 29.8in /  1008.8hPa Este 2.9mph /  4.7km/h 5mph /  8km/h 47.8% 0in /  0.0mm
22:04 81 °F /  27.2 °C 59.5 °F /  15.3 °C 29.8in /  1008.8hPa ESE 2.9mph /  4.6km/h 5.8mph /  9.3km/h 48% 0in /  0.0mm
22:09 80.8 °F /  27.1 °C 59.7 °F /  15.4 °C 29.8in /  1009.1hPa SE 2.9mph /  4.7km/h 4.7mph /  7.6km/h 48.9% 0in /  0.0mm
22:14 80.8 °F /  27.1 °C 59.5 °F /  15.3 °C 29.8in /  1009.1hPa SSE 2.9mph /  4.7km/h 4.6mph /  7.4km/h 48.7% 0in /  0.0mm
22:19 80.8 °F /  27.1 °C 59.4 °F /  15.2 °C 29.8in /  1009.1hPa SSE 3mph /  4.9km/h 5.9mph /  9.5km/h 48.1% 0in /  0.0mm
22:24 80.8 °F /  27.1 °C 59.2 °F /  15.1 °C 29.8in /  1009.4hPa Sur 3.1mph /  5km/h 4.6mph /  7.4km/h 47.9% 0in /  0.0mm
22:29 80.8 °F /  27.1 °C 59.4 °F /  15.2 °C 29.8in /  1009.4hPa SSO 3mph /  4.8km/h 5mph /  8km/h 48% 0in /  0.0mm
22:34 81 °F /  27.2 °C 59.4 °F /  15.2 °C 29.8in /  1009.4hPa Oeste 2.9mph /  4.6km/h 5.8mph /  9.3km/h 47.9% 0in /  0.0mm
22:39 80.8 °F /  27.1 °C 59.9 °F /  15.5 °C 29.8in /  1009.8hPa NO 2.6mph /  4.2km/h 4.7mph /  7.6km/h 49.1% 0in /  0.0mm
22:44 80.4 °F /  26.9 °C 60.1 °F /  15.6 °C 29.8in /  1009.8hPa NO 2.4mph /  3.9km/h 6.9mph /  11.1km/h 50.1% 0in /  0.0mm
22:49 79.9 °F /  26.6 °C 60.8 °F /  16 °C 29.8in /  1009.8hPa NO 3.1mph /  5km/h 6.9mph /  11.1km/h 52.2% 0in /  0.0mm
22:54 79.2 °F /  26.2 °C 61 °F /  16.1 °C 29.8in /  1010.1hPa NO 3.6mph /  5.8km/h 7mph /  11.3km/h 53.6% 0in /  0.0mm
22:59 78.8 °F /  26 °C 60.6 °F /  15.9 °C 29.8in /  1010.1hPa NO 3.6mph /  5.8km/h 4.6mph /  7.4km/h 54% 0in /  0.0mm
23:04 78.6 °F /  25.9 °C 61 °F /  16.1 °C 29.8in /  1010.1hPa ONO 3.6mph /  5.8km/h 5mph /  8km/h 54.7% 0in /  0.0mm
23:09 78.4 °F /  25.8 °C 60.8 °F /  16 °C 29.8in /  1010.2hPa ONO 2.5mph /  4.1km/h 3.5mph /  5.6km/h 54.9% 0in /  0.0mm
23:14 78.4 °F /  25.8 °C 60.6 °F /  15.9 °C 29.8in /  1010.2hPa ONO 1.8mph /  2.9km/h 2mph /  3.2km/h 54.6% 0in /  0.0mm
23:19 78.4 °F /  25.8 °C 60.3 °F /  15.7 °C 29.8in /  1010.2hPa ONO 0.7mph /  1.2km/h 3.6mph /  5.8km/h 53.7% 0in /  0.0mm
23:24 78.6 °F /  25.9 °C 60.1 °F /  15.6 °C 29.8in /  1010.4hPa Calm   2.3mph /  3.7km/h 53% 0in /  0.0mm
23:29 79 °F /  26.1 °C 60.8 °F /  16 °C 29.8in /  1010.4hPa SSO 0.8mph /  1.3km/h 3.5mph /  5.6km/h 53.7% 0in /  0.0mm
23:34 79 °F /  26.1 °C 61 °F /  16.1 °C 29.8in /  1010.4hPa Sur 1.4mph /  2.3km/h 4.6mph /  7.4km/h 54% 0in /  0.0mm
23:39 78.6 °F /  25.9 °C 60.6 °F /  15.9 °C 29.8in /  1010.5hPa SE 2.1mph /  3.3km/h 5.2mph /  8.4km/h 54% 0in /  0.0mm
23:44 78.4 °F /  25.8 °C 60.6 °F /  15.9 °C 29.8in /  1010.5hPa SSE 2.4mph /  3.9km/h 4.6mph /  7.4km/h 54.5% 0in /  0.0mm
23:49 78.3 °F /  25.7 °C 60.3 °F /  15.7 °C 29.8in /  1010.5hPa SSE 2.4mph /  3.9km/h 4mph /  6.4km/h 54% 0in /  0.0mm
23:54 78.3 °F /  25.7 °C 60.4 °F /  15.8 °C 29.8in /  1010.5hPa SSE 2.4mph /  3.9km/h 2.3mph /  3.7km/h 54.4% 0in /  0.0mm
23:59 78.3 °F /  25.7 °C 60.3 °F /  15.7 °C 29.8in /  1010.4hPa SSE 0.8mph /  1.3km/h 2.9mph /  4.7km/h 54.2% 0in /  0.0mm
Murcia-Puente Tocinos, España
Compliments of Weather Underground - 3 mb

La estación de MeteoMurcia.com, publica sus datos en los siguientes proyectos:

Weather Underground PWS IMURCIAP2 Meteoclimatic www.awekas.at

W3Counter
Web Analytics